createdAt,value
2017-12-02T00:00:07.336Z,1008.47
2017-12-02T00:01:07.418Z,1008.48
2017-12-02T00:02:07.283Z,1008.48
2017-12-02T00:03:07.329Z,1008.50
2017-12-02T00:04:07.225Z,1008.50
2017-12-02T00:05:07.340Z,1008.49
2017-12-02T00:06:07.171Z,1008.51
2017-12-02T00:07:07.254Z,1008.47
2017-12-02T00:08:07.114Z,1008.46
2017-12-02T00:09:07.160Z,1008.49
2017-12-02T00:10:07.065Z,1008.53
2017-12-02T00:11:07.029Z,1008.54
2017-12-02T00:12:07.008Z,1008.55
2017-12-02T00:13:07.083Z,1008.58
2017-12-02T00:14:06.954Z,1008.62
2017-12-02T00:15:06.995Z,1008.57
2017-12-02T00:16:06.999Z,1008.60
2017-12-02T00:17:06.860Z,1008.58
2017-12-02T00:18:06.913Z,1008.58
2017-12-02T00:19:06.813Z,1008.59
2017-12-02T00:20:06.817Z,1008.60
2017-12-02T00:21:06.758Z,1008.62
2017-12-02T00:22:06.834Z,1008.67
2017-12-02T00:23:06.702Z,1008.67
2017-12-02T00:24:06.744Z,1008.68
2017-12-02T00:25:06.641Z,1008.71
2017-12-02T00:26:06.759Z,1008.73
2017-12-02T00:27:06.596Z,1008.75
2017-12-02T00:28:06.666Z,1008.77
2017-12-02T00:29:06.536Z,1008.79
2017-12-02T00:30:06.579Z,1008.76
2017-12-02T00:31:06.480Z,1008.75
2017-12-02T00:32:06.489Z,1008.79
2017-12-02T00:33:06.424Z,1008.75
2017-12-02T00:34:06.501Z,1008.78
2017-12-02T00:35:06.370Z,1008.80
2017-12-02T00:36:06.333Z,1008.83
2017-12-02T00:37:06.304Z,1008.82
2017-12-02T00:38:06.322Z,1008.86
2017-12-02T00:39:06.258Z,1008.86
2017-12-02T00:40:06.328Z,1008.88
2017-12-02T00:41:06.195Z,1008.96
2017-12-02T00:42:06.239Z,1008.93
2017-12-02T00:43:06.149Z,1008.97
2017-12-02T00:44:06.150Z,1008.96
2017-12-02T00:45:06.086Z,1009.04
2017-12-02T00:46:06.063Z,1008.99
2017-12-02T00:47:06.067Z,1009.06
2017-12-02T00:48:06.002Z,1009.06
2017-12-02T00:49:06.076Z,1009.07
2017-12-02T00:50:05.953Z,1009.11
2017-12-02T00:51:05.928Z,1009.13
2017-12-02T00:52:05.891Z,1009.12
2017-12-02T00:53:05.899Z,1009.10
2017-12-02T00:54:05.836Z,1009.12
2017-12-02T00:55:06.012Z,1009.15
2017-12-02T00:56:05.783Z,1009.15
2017-12-02T00:57:05.926Z,1009.15
2017-12-02T00:58:05.728Z,1009.13
2017-12-02T00:59:05.836Z,1009.16
2017-12-02T01:00:05.681Z,1009.16
2017-12-02T01:01:05.842Z,1009.16
2017-12-02T01:02:05.620Z,1009.17
2017-12-02T01:03:05.754Z,1009.18
2017-12-02T01:04:05.565Z,1009.16
2017-12-02T01:05:05.662Z,1009.16
2017-12-02T01:06:05.509Z,1009.22
2017-12-02T01:07:30.154Z,1009.18
2017-12-02T01:08:05.446Z,1009.24
2017-12-02T01:09:05.592Z,1009.24
2017-12-02T01:10:05.394Z,1009.23
2017-12-02T01:11:05.377Z,1009.25
2017-12-02T01:12:05.341Z,1009.27
2017-12-02T01:13:05.317Z,1009.30
2017-12-02T01:14:05.420Z,1009.32
2017-12-02T01:15:05.269Z,1009.35
2017-12-02T01:16:05.425Z,1009.36
2017-12-02T01:17:05.201Z,1009.38
2017-12-02T01:18:05.335Z,1009.40
2017-12-02T01:19:05.144Z,1009.39
2017-12-02T01:20:05.124Z,1009.40
2017-12-02T01:21:05.089Z,1009.43
2017-12-02T01:22:05.259Z,1009.41
2017-12-02T01:23:05.161Z,1009.46
2017-12-02T01:24:05.015Z,1009.48
2017-12-02T01:25:05.171Z,1009.51
2017-12-02T01:26:04.958Z,1009.50
2017-12-02T01:27:04.923Z,1009.52
2017-12-02T01:28:05.249Z,1009.52
2017-12-02T01:29:04.990Z,1009.53
2017-12-02T01:30:04.847Z,1009.55
2017-12-02T01:31:04.814Z,1009.54
2017-12-02T01:32:04.788Z,1009.55
2017-12-02T01:33:04.765Z,1009.57
2017-12-02T01:34:04.921Z,1009.59
2017-12-02T01:35:04.707Z,1009.56
2017-12-02T01:36:04.680Z,1009.57
2017-12-02T01:37:04.653Z,1009.55
2017-12-02T01:38:04.628Z,1009.58
2017-12-02T01:39:04.599Z,1009.58
2017-12-02T01:40:04.759Z,1009.58
2017-12-02T01:41:04.547Z,1009.56
2017-12-02T01:42:04.668Z,1009.59
2017-12-02T01:43:04.483Z,1009.62
2017-12-02T01:44:04.454Z,1009.64
2017-12-02T01:45:04.440Z,1009.67
2017-12-02T01:46:04.411Z,1009.71
2017-12-02T01:47:04.380Z,1009.69
2017-12-02T01:48:04.353Z,1009.75
2017-12-02T01:49:04.498Z,1009.78
2017-12-02T01:50:04.403Z,1009.79
2017-12-02T01:51:04.275Z,1009.76
2017-12-02T01:52:04.419Z,1009.75
2017-12-02T01:53:04.320Z,1009.73
2017-12-02T01:54:04.180Z,1009.77
2017-12-02T01:55:04.336Z,1009.79
2017-12-02T01:56:04.242Z,1009.77
2017-12-02T01:57:04.107Z,1009.77
2017-12-02T01:58:04.252Z,1009.78
2017-12-02T01:59:04.154Z,1009.78
2017-12-02T02:00:04.024Z,1009.78
2017-12-02T02:01:04.229Z,1009.79
2017-12-02T02:02:04.069Z,1009.81
2017-12-02T02:03:03.941Z,1009.78
2017-12-02T02:04:04.090Z,1009.80
2017-12-02T02:05:03.984Z,1009.85
2017-12-02T02:06:03.851Z,1009.84
2017-12-02T02:07:04.001Z,1009.86
2017-12-02T02:08:03.801Z,1009.81
2017-12-02T02:09:03.908Z,1009.89
2017-12-02T02:10:03.743Z,1009.90
2017-12-02T02:11:03.721Z,1009.92
2017-12-02T02:12:03.695Z,1009.92
2017-12-02T02:13:03.667Z,1009.92
2017-12-02T02:14:03.734Z,1009.95
2017-12-02T02:15:03.605Z,1009.94
2017-12-02T02:16:03.747Z,1009.93
2017-12-02T02:17:03.654Z,1009.90
2017-12-02T02:18:03.526Z,1009.92
2017-12-02T02:19:03.660Z,1009.91
2017-12-02T02:20:03.561Z,1009.92
2017-12-02T02:21:03.450Z,1009.92
2017-12-02T02:22:03.576Z,1009.91
2017-12-02T02:23:03.385Z,1009.93
2017-12-02T02:24:03.495Z,1009.95
2017-12-02T02:25:03.337Z,1009.94
2017-12-02T02:26:03.309Z,1009.90
2017-12-02T02:27:03.274Z,1009.89
2017-12-02T02:28:03.410Z,1009.93
2017-12-02T02:29:03.321Z,1009.90
2017-12-02T02:30:03.193Z,1009.92
2017-12-02T02:31:03.179Z,1009.90
2017-12-02T02:32:03.281Z,1009.90
2017-12-02T02:33:03.112Z,1009.93
2017-12-02T02:34:03.246Z,1009.95
2017-12-02T02:35:03.144Z,1009.97
2017-12-02T02:36:03.153Z,1009.94
2017-12-02T02:37:03.006Z,1009.96
2017-12-02T02:38:02.978Z,1009.95
2017-12-02T02:39:03.068Z,1009.92
2017-12-02T02:40:02.924Z,1009.88
2017-12-02T02:41:02.900Z,1009.89
2017-12-02T02:42:02.865Z,1009.94
2017-12-02T02:43:02.993Z,1009.93
2017-12-02T02:44:02.890Z,1009.91
2017-12-02T02:45:02.791Z,1009.93
2017-12-02T02:46:02.907Z,1009.92
2017-12-02T02:47:02.810Z,1009.94
2017-12-02T02:48:02.700Z,1009.94
2017-12-02T02:49:02.823Z,1009.95
2017-12-02T02:50:02.726Z,1009.94
2017-12-02T02:51:02.624Z,1009.93
2017-12-02T02:52:02.740Z,1009.91
2017-12-02T02:53:02.642Z,1009.96
2017-12-02T02:54:02.544Z,1009.93
2017-12-02T02:55:02.655Z,1009.93
2017-12-02T02:56:03.587Z,1009.94
2017-12-02T02:57:02.450Z,1009.91
2017-12-02T02:58:02.574Z,1009.92
2017-12-02T02:59:02.399Z,1009.96
2017-12-02T03:00:02.483Z,1010.00
2017-12-02T03:01:02.341Z,1010.01
2017-12-02T03:02:02.315Z,1010.05
2017-12-02T03:03:02.293Z,1010.13
2017-12-02T03:04:02.266Z,1010.11
2017-12-02T03:05:02.306Z,1010.11
2017-12-02T03:06:02.211Z,1010.16
2017-12-02T03:07:02.317Z,1010.14
2017-12-02T03:08:02.154Z,1010.12
2017-12-02T03:09:02.224Z,1010.11
2017-12-02T03:10:02.097Z,1010.11
2017-12-02T03:11:02.066Z,1010.09
2017-12-02T03:12:02.045Z,1010.13
2017-12-02T03:13:02.148Z,1010.17
2017-12-02T03:14:02.054Z,1010.15
2017-12-02T03:15:01.953Z,1010.18
2017-12-02T03:16:02.064Z,1010.22
2017-12-02T03:17:01.970Z,1010.22
2017-12-02T03:18:01.876Z,1010.21
2017-12-02T03:19:01.980Z,1010.21
2017-12-02T03:20:01.883Z,1010.21
2017-12-02T03:21:01.798Z,1010.24
2017-12-02T03:22:01.897Z,1010.24
2017-12-02T03:23:01.803Z,1010.25
2017-12-02T03:24:01.710Z,1010.23
2017-12-02T03:25:01.812Z,1010.23
2017-12-02T03:26:01.713Z,1010.27
2017-12-02T03:27:01.631Z,1010.32
2017-12-02T03:28:01.736Z,1010.29
2017-12-02T03:29:01.631Z,1010.30
2017-12-02T03:30:01.541Z,1010.38
2017-12-02T03:31:01.518Z,1010.32
2017-12-02T03:32:01.550Z,1010.35
2017-12-02T03:33:01.456Z,1010.34
2017-12-02T03:34:01.562Z,1010.32
2017-12-02T03:35:01.473Z,1010.34
2017-12-02T03:36:01.470Z,1010.34
2017-12-02T03:37:01.374Z,1010.30
2017-12-02T03:38:01.325Z,1010.37
2017-12-02T03:39:01.300Z,1010.34
2017-12-02T03:40:01.392Z,1010.33
2017-12-02T03:41:01.236Z,1010.30
2017-12-02T03:42:01.211Z,1010.31
2017-12-02T03:43:01.307Z,1010.30
2017-12-02T03:44:01.212Z,1010.28
2017-12-02T03:45:01.137Z,1010.33
2017-12-02T03:46:01.100Z,1010.33
2017-12-02T03:47:01.131Z,1010.33
2017-12-02T03:48:01.044Z,1010.34
2017-12-02T03:49:01.140Z,1010.29
2017-12-02T03:50:01.044Z,1010.29
2017-12-02T03:51:00.964Z,1010.31
2017-12-02T03:52:00.940Z,1010.31
2017-12-02T03:53:00.907Z,1010.34
2017-12-02T03:54:00.878Z,1010.29
2017-12-02T03:55:01.075Z,1010.32
2017-12-02T03:56:00.977Z,1010.33
2017-12-02T03:57:00.807Z,1010.39
2017-12-02T03:58:00.769Z,1010.38
2017-12-02T03:59:00.752Z,1010.39
2017-12-02T04:00:00.717Z,1010.44
2017-12-02T04:01:00.909Z,1010.44
2017-12-02T04:02:00.811Z,1010.40
2017-12-02T04:03:00.818Z,1010.44
2017-12-02T04:04:00.609Z,1010.44
2017-12-02T04:05:00.586Z,1010.47
2017-12-02T04:06:00.553Z,1010.48
2017-12-02T04:07:00.639Z,1010.46
2017-12-02T04:08:00.641Z,1010.51
2017-12-02T04:09:00.477Z,1010.54
2017-12-02T04:10:00.655Z,1010.59
2017-12-02T04:11:00.559Z,1010.58
2017-12-02T04:12:00.388Z,1010.53
2017-12-02T04:13:00.365Z,1010.55
2017-12-02T04:14:00.476Z,1010.52
2017-12-02T04:15:00.306Z,1010.51
2017-12-02T04:16:00.490Z,1010.50
2017-12-02T04:17:00.393Z,1010.49
2017-12-02T04:18:00.225Z,1010.52
2017-12-02T04:19:00.199Z,1010.51
2017-12-02T04:20:00.305Z,1010.53
2017-12-02T04:21:00.148Z,1010.56
2017-12-02T04:22:00.319Z,1010.52
2017-12-02T04:23:00.221Z,1010.50
2017-12-02T04:24:00.054Z,1010.50
2017-12-02T04:25:00.032Z,1010.51
2017-12-02T04:26:00.005Z,1010.50
2017-12-02T04:26:59.971Z,1010.52
2017-12-02T04:28:00.151Z,1010.53
2017-12-02T04:29:00.057Z,1010.54
2017-12-02T04:29:59.890Z,1010.48
2017-12-02T04:30:59.865Z,1010.47
2017-12-02T04:31:59.838Z,1010.49
2017-12-02T04:32:59.802Z,1010.47
2017-12-02T04:33:59.880Z,1010.45
2017-12-02T04:34:59.887Z,1010.45
2017-12-02T04:35:59.728Z,1010.45
2017-12-02T04:36:59.793Z,1010.49
2017-12-02T04:37:59.806Z,1010.58
2017-12-02T04:38:59.648Z,1010.61
2017-12-02T04:39:59.715Z,1010.58
2017-12-02T04:40:59.718Z,1010.60
2017-12-02T04:41:59.558Z,1010.57
2017-12-02T04:42:59.731Z,1010.55
2017-12-02T04:43:59.500Z,1010.56
2017-12-02T04:44:59.480Z,1010.56
2017-12-02T04:45:59.544Z,1010.52
2017-12-02T04:46:59.552Z,1010.52
2017-12-02T04:47:59.390Z,1010.47
2017-12-02T04:48:59.466Z,1010.49
2017-12-02T04:49:59.470Z,1010.51
2017-12-02T04:50:59.322Z,1010.54
2017-12-02T04:51:59.375Z,1010.52
2017-12-02T04:52:59.385Z,1010.53
2017-12-02T04:53:59.223Z,1010.53
2017-12-02T04:54:59.294Z,1010.54
2017-12-02T04:55:59.300Z,1010.53
2017-12-02T04:56:59.146Z,1010.52
2017-12-02T04:57:59.214Z,1010.54
2017-12-02T04:58:59.219Z,1010.55
2017-12-02T04:59:59.072Z,1010.58
2017-12-02T05:00:59.035Z,1010.59
2017-12-02T05:01:59.010Z,1010.56
2017-12-02T05:02:58.977Z,1010.61
2017-12-02T05:03:59.041Z,1010.59
2017-12-02T05:04:58.922Z,1010.59
2017-12-02T05:05:58.902Z,1010.57
2017-12-02T05:06:58.865Z,1010.55
2017-12-02T05:07:58.845Z,1010.55
2017-12-02T05:08:58.814Z,1010.56
2017-12-02T05:09:58.872Z,1010.57
2017-12-02T05:10:58.756Z,1010.59
2017-12-02T05:11:58.885Z,1010.59
2017-12-02T05:12:58.701Z,1010.58
2017-12-02T05:13:58.680Z,1010.63
2017-12-02T05:14:58.648Z,1010.68
2017-12-02T05:15:58.704Z,1010.63
2017-12-02T05:16:58.589Z,1010.68
2017-12-02T05:17:58.717Z,1010.71
2017-12-02T05:18:58.537Z,1010.71
2017-12-02T05:19:58.515Z,1010.71
2017-12-02T05:20:58.480Z,1010.70
2017-12-02T05:21:58.539Z,1010.68
2017-12-02T05:22:58.424Z,1010.71
2017-12-02T05:23:58.547Z,1010.73
2017-12-02T05:24:58.381Z,1010.76
2017-12-02T05:25:58.348Z,1010.80
2017-12-02T05:26:58.316Z,1010.79
2017-12-02T05:27:58.366Z,1010.81
2017-12-02T05:28:58.273Z,1010.81
2017-12-02T05:29:58.240Z,1010.82
2017-12-02T05:30:58.210Z,1010.79
2017-12-02T05:31:58.176Z,1010.79
2017-12-02T05:32:58.157Z,1010.84
2017-12-02T05:33:58.203Z,1010.86
2017-12-02T05:34:58.099Z,1010.86
2017-12-02T05:35:58.076Z,1010.86
2017-12-02T05:36:58.121Z,1010.89
2017-12-02T05:37:58.018Z,1010.89
2017-12-02T05:38:58.129Z,1010.89
2017-12-02T05:39:57.964Z,1010.88
2017-12-02T05:40:57.936Z,1010.88
2017-12-02T05:41:58.968Z,1010.86
2017-12-02T05:42:57.883Z,1010.88
2017-12-02T05:43:57.850Z,1010.86
2017-12-02T05:44:57.821Z,1010.85
2017-12-02T05:45:57.867Z,1010.91
2017-12-02T05:46:57.771Z,1010.91
2017-12-02T05:47:57.735Z,1010.94
2017-12-02T05:48:57.784Z,1010.95
2017-12-02T05:49:57.689Z,1010.94
2017-12-02T05:50:57.791Z,1010.96
2017-12-02T05:51:57.632Z,1010.96
2017-12-02T05:52:57.608Z,1010.97
2017-12-02T05:53:57.582Z,1011.01
2017-12-02T05:54:57.616Z,1010.98
2017-12-02T05:55:57.514Z,1010.95
2017-12-02T05:56:57.627Z,1010.99
2017-12-02T05:57:57.461Z,1010.97
2017-12-02T05:58:57.442Z,1010.98
2017-12-02T05:59:57.417Z,1010.91
2017-12-02T06:00:57.447Z,1010.94
2017-12-02T06:01:57.355Z,1010.97
2017-12-02T06:02:57.456Z,1010.96
2017-12-02T06:03:57.295Z,1010.94
2017-12-02T06:04:57.279Z,1010.99
2017-12-02T06:05:57.245Z,1010.99
2017-12-02T06:06:57.277Z,1011.01
2017-12-02T06:07:57.187Z,1011.01
2017-12-02T06:08:57.293Z,1011.01
2017-12-02T06:09:57.134Z,1011.04
2017-12-02T06:10:57.109Z,1011.03
2017-12-02T06:11:57.205Z,1011.03
2017-12-02T06:12:57.057Z,1011.05
2017-12-02T06:13:57.120Z,1011.05
2017-12-02T06:14:56.996Z,1011.06
2017-12-02T06:15:56.978Z,1011.06
2017-12-02T06:16:57.031Z,1011.10
2017-12-02T06:17:56.919Z,1011.11
2017-12-02T06:18:56.942Z,1011.12
2017-12-02T06:19:56.856Z,1011.12
2017-12-02T06:20:56.950Z,1011.17
2017-12-02T06:21:56.811Z,1011.23
2017-12-02T06:22:56.859Z,1011.25
2017-12-02T06:23:56.758Z,1011.28
2017-12-02T06:24:56.770Z,1011.28
2017-12-02T06:25:56.778Z,1011.32
2017-12-02T06:26:56.665Z,1011.33
2017-12-02T06:27:56.689Z,1011.39
2017-12-02T06:28:56.610Z,1011.42
2017-12-02T06:29:56.705Z,1011.43
2017-12-02T06:30:56.563Z,1011.48
2017-12-02T06:31:56.532Z,1011.47
2017-12-02T06:32:56.615Z,1011.52
2017-12-02T06:33:56.476Z,1011.55
2017-12-02T06:34:56.527Z,1011.56
2017-12-02T06:35:56.423Z,1011.57
2017-12-02T06:36:56.435Z,1011.62
2017-12-02T06:37:56.368Z,1011.65
2017-12-02T06:38:56.471Z,1011.65
2017-12-02T06:39:56.307Z,1011.68
2017-12-02T06:40:56.360Z,1011.65
2017-12-02T06:41:56.365Z,1011.69
2017-12-02T06:42:56.228Z,1011.71
2017-12-02T06:43:57.092Z,1011.74
2017-12-02T06:44:56.175Z,1011.68
2017-12-02T06:45:56.180Z,1011.75
2017-12-02T06:46:56.118Z,1011.73
2017-12-02T06:47:56.086Z,1011.77
2017-12-02T06:48:56.062Z,1011.73
2017-12-02T06:49:56.208Z,1011.75
2017-12-02T06:50:56.009Z,1011.72
2017-12-02T06:51:56.121Z,1011.75
2017-12-02T06:52:55.949Z,1011.76
2017-12-02T06:53:56.128Z,1011.77
2017-12-02T06:54:55.891Z,1011.81
2017-12-02T06:55:56.038Z,1011.78
2017-12-02T06:56:55.843Z,1011.72
2017-12-02T06:57:55.944Z,1011.80
2017-12-02T06:58:55.785Z,1011.81
2017-12-02T06:59:55.961Z,1011.80
2017-12-02T07:00:55.729Z,1011.86
2017-12-02T07:01:55.871Z,1011.82
2017-12-02T07:02:55.670Z,1011.88
2017-12-02T07:03:55.783Z,1011.86
2017-12-02T07:04:55.613Z,1011.83
2017-12-02T07:05:55.794Z,1011.89
2017-12-02T07:06:55.573Z,1011.88
2017-12-02T07:07:55.701Z,1011.87
2017-12-02T07:08:55.513Z,1011.86
2017-12-02T07:09:55.615Z,1011.89
2017-12-02T07:10:55.622Z,1011.91
2017-12-02T07:11:55.419Z,1011.87
2017-12-02T07:12:55.431Z,1011.90
2017-12-02T07:13:55.369Z,1011.88
2017-12-02T07:14:55.443Z,1011.89
2017-12-02T07:15:55.315Z,1011.88
2017-12-02T07:16:55.334Z,1011.91
2017-12-02T07:17:55.355Z,1011.95
2017-12-02T07:18:55.233Z,1011.99
2017-12-02T07:19:55.269Z,1011.98
2017-12-02T07:20:55.171Z,1012.00
2017-12-02T07:21:55.172Z,1011.99
2017-12-02T07:22:55.120Z,1012.01
2017-12-02T07:23:55.190Z,1011.98
2017-12-02T07:24:55.059Z,1011.98
2017-12-02T07:25:55.093Z,1011.98
2017-12-02T07:26:55.007Z,1012.00
2017-12-02T07:27:54.983Z,1011.99
2017-12-02T07:28:55.012Z,1011.95
2017-12-02T07:29:54.919Z,1012.00
2017-12-02T07:30:54.925Z,1011.98
2017-12-02T07:31:54.864Z,1012.04
2017-12-02T07:32:54.841Z,1012.05
2017-12-02T07:33:54.808Z,1012.00
2017-12-02T07:34:54.845Z,1012.05
2017-12-02T07:35:54.751Z,1012.06
2017-12-02T07:36:54.755Z,1012.04
2017-12-02T07:37:54.697Z,1012.03
2017-12-02T07:38:54.678Z,1012.05
2017-12-02T07:39:54.672Z,1012.07
2017-12-02T07:40:54.619Z,1012.09
2017-12-02T07:41:54.591Z,1012.09
2017-12-02T07:42:54.588Z,1012.07
2017-12-02T07:43:54.527Z,1012.14
2017-12-02T07:44:54.507Z,1012.11
2017-12-02T07:45:54.507Z,1012.13
2017-12-02T07:46:54.444Z,1012.12
2017-12-02T07:47:54.424Z,1012.11
2017-12-02T07:48:54.422Z,1012.11
2017-12-02T07:49:54.431Z,1012.10
2017-12-02T07:50:54.352Z,1012.06
2017-12-02T07:51:54.336Z,1012.09
2017-12-02T07:52:54.281Z,1012.09
2017-12-02T07:53:54.256Z,1012.16
2017-12-02T07:54:54.247Z,1012.14
2017-12-02T07:55:54.198Z,1012.16
2017-12-02T07:56:54.176Z,1012.16
2017-12-02T07:57:54.166Z,1012.16
2017-12-02T07:58:54.113Z,1012.12
2017-12-02T07:59:54.093Z,1012.12
2017-12-02T08:00:54.060Z,1012.19
2017-12-02T08:01:54.024Z,1012.17
2017-12-02T08:02:54.003Z,1012.21
2017-12-02T08:03:54.002Z,1012.23
2017-12-02T08:04:53.945Z,1012.22
2017-12-02T08:05:53.915Z,1012.20
2017-12-02T08:06:53.915Z,1012.21
2017-12-02T08:07:53.864Z,1012.28
2017-12-02T08:08:53.832Z,1012.23
2017-12-02T08:09:53.831Z,1012.20
2017-12-02T08:10:53.783Z,1012.22
2017-12-02T08:11:53.750Z,1012.24
2017-12-02T08:12:53.754Z,1012.21
2017-12-02T08:13:53.698Z,1012.22
2017-12-02T08:14:53.670Z,1012.22
2017-12-02T08:15:53.663Z,1012.22
2017-12-02T08:16:53.611Z,1012.23
2017-12-02T08:17:53.594Z,1012.22
2017-12-02T08:18:53.577Z,1012.22
2017-12-02T08:19:53.635Z,1012.18
2017-12-02T08:20:53.503Z,1012.19
2017-12-02T08:21:53.502Z,1012.20
2017-12-02T08:22:53.440Z,1012.20
2017-12-02T08:23:53.415Z,1012.22
2017-12-02T08:24:53.413Z,1012.23
2017-12-02T08:25:53.420Z,1012.25
2017-12-02T08:26:53.330Z,1012.22
2017-12-02T08:27:53.326Z,1012.19
2017-12-02T08:28:53.280Z,1012.20
2017-12-02T08:29:53.246Z,1012.23
2017-12-02T08:30:53.348Z,1012.23
2017-12-02T08:31:53.191Z,1012.22
2017-12-02T08:32:53.173Z,1012.20
2017-12-02T08:33:53.166Z,1012.18
2017-12-02T08:34:53.119Z,1012.19
2017-12-02T08:35:53.082Z,1012.17
2017-12-02T08:36:53.080Z,1012.16
2017-12-02T08:37:53.036Z,1012.17
2017-12-02T08:38:53.002Z,1012.20
2017-12-02T08:39:52.994Z,1012.17
2017-12-02T08:40:52.954Z,1012.19
2017-12-02T08:41:52.920Z,1012.21
2017-12-02T08:42:52.887Z,1012.24
2017-12-02T08:43:52.868Z,1012.27
2017-12-02T08:44:52.833Z,1012.29
2017-12-02T08:45:52.928Z,1012.28
2017-12-02T08:46:52.784Z,1012.29
2017-12-02T08:47:52.754Z,1012.32
2017-12-02T08:48:52.843Z,1012.32
2017-12-02T08:49:52.705Z,1012.36
2017-12-02T08:50:52.666Z,1012.36
2017-12-02T08:51:52.658Z,1012.38
2017-12-02T08:52:52.620Z,1012.37
2017-12-02T08:53:52.586Z,1012.39
2017-12-02T08:54:52.679Z,1012.39
2017-12-02T08:55:52.534Z,1012.38
2017-12-02T08:56:52.509Z,1012.38
2017-12-02T08:57:52.596Z,1012.42
2017-12-02T08:58:52.458Z,1012.43
2017-12-02T08:59:52.422Z,1012.43
2017-12-02T09:00:52.400Z,1012.46
2017-12-02T09:01:52.411Z,1012.47
2017-12-02T09:02:52.338Z,1012.49
2017-12-02T09:03:52.421Z,1012.50
2017-12-02T09:04:52.326Z,1012.48
2017-12-02T09:05:52.263Z,1012.47
2017-12-02T09:06:52.339Z,1012.51
2017-12-02T09:07:52.208Z,1012.48
2017-12-02T09:08:52.172Z,1012.47
2017-12-02T09:09:52.153Z,1012.51
2017-12-02T09:10:52.159Z,1012.50
2017-12-02T09:11:52.095Z,1012.54
2017-12-02T09:12:52.169Z,1012.57
2017-12-02T09:13:52.050Z,1012.64
2017-12-02T09:14:52.012Z,1012.65
2017-12-02T09:15:52.087Z,1012.66
2017-12-02T09:16:51.952Z,1012.69
2017-12-02T09:17:51.929Z,1012.74
2017-12-02T09:18:52.003Z,1012.75
2017-12-02T09:19:51.878Z,1012.75
2017-12-02T09:20:51.843Z,1012.71
2017-12-02T09:21:52.839Z,1012.74
2017-12-02T09:22:51.795Z,1012.73
2017-12-02T09:23:51.763Z,1012.77
2017-12-02T09:24:51.837Z,1012.82
2017-12-02T09:25:51.713Z,1012.80
2017-12-02T09:26:51.680Z,1012.86
2017-12-02T09:27:51.748Z,1012.87
2017-12-02T09:28:51.628Z,1012.82
2017-12-02T09:29:51.604Z,1012.84
2017-12-02T09:30:51.570Z,1012.87
2017-12-02T09:31:51.568Z,1012.90
2017-12-02T09:32:51.520Z,1012.90
2017-12-02T09:33:51.585Z,1012.91
2017-12-02T09:34:51.466Z,1012.92
2017-12-02T09:35:51.434Z,1012.92
2017-12-02T09:36:51.501Z,1012.95
2017-12-02T09:37:51.412Z,1012.96
2017-12-02T09:38:51.354Z,1012.94
2017-12-02T09:39:51.413Z,1012.97
2017-12-02T09:40:51.299Z,1012.97
2017-12-02T09:41:51.265Z,1012.98
2017-12-02T09:42:51.336Z,1012.99
2017-12-02T09:43:51.216Z,1012.97
2017-12-02T09:44:51.194Z,1013.01
2017-12-02T09:45:51.246Z,1012.99
2017-12-02T09:46:51.136Z,1012.95
2017-12-02T09:47:51.119Z,1012.93
2017-12-02T09:48:51.163Z,1012.95
2017-12-02T09:49:51.054Z,1012.98
2017-12-02T09:50:51.021Z,1013.00
2017-12-02T09:51:51.080Z,1013.02
2017-12-02T09:52:50.968Z,1013.03
2017-12-02T09:53:50.946Z,1013.06
2017-12-02T09:54:51.648Z,1013.08
2017-12-02T09:55:50.922Z,1013.08
2017-12-02T09:56:50.903Z,1013.10
2017-12-02T09:57:50.835Z,1013.09
2017-12-02T09:58:50.931Z,1013.13
2017-12-02T09:59:50.779Z,1013.14
2017-12-02T10:00:50.746Z,1013.18
2017-12-02T10:01:50.728Z,1013.12
2017-12-02T10:02:50.694Z,1013.15
2017-12-02T10:03:50.743Z,1013.15
2017-12-02T10:04:50.650Z,1013.12
2017-12-02T10:05:50.628Z,1013.13
2017-12-02T10:06:50.655Z,1013.15
2017-12-02T10:07:50.558Z,1013.15
2017-12-02T10:08:50.534Z,1013.12
2017-12-02T10:09:50.576Z,1013.15
2017-12-02T10:10:50.477Z,1013.08
2017-12-02T10:11:50.446Z,1013.10
2017-12-02T10:12:50.492Z,1013.08
2017-12-02T10:13:50.403Z,1013.08
2017-12-02T10:14:50.364Z,1013.07
2017-12-02T10:15:50.534Z,1013.09
2017-12-02T10:16:50.314Z,1013.08
2017-12-02T10:17:50.293Z,1013.08
2017-12-02T10:18:50.324Z,1013.06
2017-12-02T10:19:50.249Z,1013.09
2017-12-02T10:20:50.197Z,1013.06
2017-12-02T10:21:50.172Z,1013.10
2017-12-02T10:22:50.260Z,1013.14
2017-12-02T10:23:50.121Z,1013.13
2017-12-02T10:24:50.165Z,1013.11
2017-12-02T10:25:50.060Z,1013.18
2017-12-02T10:26:50.043Z,1013.18
2017-12-02T10:27:50.074Z,1013.19
2017-12-02T10:28:49.977Z,1013.20
2017-12-02T10:29:49.954Z,1013.25
2017-12-02T10:30:49.932Z,1013.22
2017-12-02T10:31:50.919Z,1013.25
2017-12-02T10:32:49.872Z,1013.22
2017-12-02T10:33:49.903Z,1013.23
2017-12-02T10:34:49.821Z,1013.19
2017-12-02T10:35:49.791Z,1013.18
2017-12-02T10:36:49.765Z,1013.19
2017-12-02T10:37:49.825Z,1013.17
2017-12-02T10:38:49.705Z,1013.16
2017-12-02T10:39:49.733Z,1013.18
2017-12-02T10:40:49.656Z,1013.16
2017-12-02T10:41:49.623Z,1013.13
2017-12-02T10:42:49.653Z,1013.12
2017-12-02T10:43:49.571Z,1013.14
2017-12-02T10:44:49.540Z,1013.15
2017-12-02T10:45:49.518Z,1013.13
2017-12-02T10:46:49.577Z,1013.16
2017-12-02T10:47:49.461Z,1013.13
2017-12-02T10:48:51.559Z,1013.10
2017-12-02T10:49:49.405Z,1013.09
2017-12-02T10:50:49.379Z,1013.08
2017-12-02T10:51:50.433Z,1013.08
2017-12-02T10:52:49.322Z,1013.09
2017-12-02T10:53:49.309Z,1013.12
2017-12-02T10:54:49.271Z,1013.13
2017-12-02T10:55:49.243Z,1013.04
2017-12-02T10:56:49.225Z,1013.10
2017-12-02T10:57:49.188Z,1013.09
2017-12-02T10:58:49.274Z,1013.05
2017-12-02T10:59:49.129Z,1013.08
2017-12-02T11:00:49.150Z,1013.04
2017-12-02T11:01:49.076Z,1013.00
2017-12-02T11:02:49.044Z,1012.98
2017-12-02T11:03:49.016Z,1012.96
2017-12-02T11:04:49.079Z,1012.94
2017-12-02T11:05:49.079Z,1012.93
2017-12-02T11:06:48.935Z,1012.93
2017-12-02T11:07:48.991Z,1012.95
2017-12-02T11:08:48.995Z,1012.96
2017-12-02T11:09:48.852Z,1012.95
2017-12-02T11:10:48.904Z,1012.99
2017-12-02T11:11:49.827Z,1012.95
2017-12-02T11:12:48.773Z,1012.96
2017-12-02T11:13:48.826Z,1013.01
2017-12-02T11:14:48.828Z,1013.02
2017-12-02T11:15:48.695Z,1013.02
2017-12-02T11:16:48.735Z,1013.02
2017-12-02T11:17:48.740Z,1013.04
2017-12-02T11:18:48.612Z,1013.07
2017-12-02T11:19:48.648Z,1013.06
2017-12-02T11:20:48.657Z,1013.07
2017-12-02T11:21:48.525Z,1013.02
2017-12-02T11:22:48.565Z,1013.00
2017-12-02T11:23:48.572Z,1013.03
2017-12-02T11:24:48.438Z,1013.01
2017-12-02T11:25:48.483Z,1013.02
2017-12-02T11:26:48.392Z,1013.04
2017-12-02T11:27:48.361Z,1013.06
2017-12-02T11:28:48.399Z,1013.05
2017-12-02T11:29:48.405Z,1013.03
2017-12-02T11:30:48.276Z,1012.99
2017-12-02T11:31:48.320Z,1013.02
2017-12-02T11:32:48.319Z,1012.96
2017-12-02T11:33:48.197Z,1013.00
2017-12-02T11:34:48.246Z,1012.92
2017-12-02T11:35:48.141Z,1012.92
2017-12-02T11:36:48.142Z,1012.90
2017-12-02T11:37:48.086Z,1012.92
2017-12-02T11:38:48.058Z,1012.92
2017-12-02T11:39:48.036Z,1012.94
2017-12-02T11:40:48.065Z,1012.92
2017-12-02T11:41:49.002Z,1012.91
2017-12-02T11:42:47.947Z,1012.98
2017-12-02T11:43:47.985Z,1012.94
2017-12-02T11:44:47.989Z,1012.92
2017-12-02T11:45:47.882Z,1012.94
2017-12-02T11:46:47.899Z,1012.88
2017-12-02T11:47:47.907Z,1012.87
2017-12-02T11:48:47.783Z,1012.87
2017-12-02T11:49:47.818Z,1012.82
2017-12-02T11:50:47.816Z,1012.85
2017-12-02T11:51:47.706Z,1012.86
2017-12-02T11:52:47.725Z,1012.90
2017-12-02T11:53:47.739Z,1012.89
2017-12-02T11:54:47.625Z,1012.88
2017-12-02T11:55:47.647Z,1012.86
2017-12-02T11:56:47.572Z,1012.83
2017-12-02T11:57:47.575Z,1012.81
2017-12-02T11:58:47.515Z,1012.83
2017-12-02T11:59:47.496Z,1012.77
2017-12-02T12:00:47.476Z,1012.77
2017-12-02T12:01:48.503Z,1012.75
2017-12-02T12:02:47.483Z,1012.73
2017-12-02T12:03:47.376Z,1012.74
2017-12-02T12:04:47.400Z,1012.71